Time;durP1;ratioP1;P1;durP2;ratioP2;P2;SDS_P1;SDS_P2;PMS_P1;PMS_P2;Temp;Humidity;BMP_temperature;BMP_pressure;BME280_temperature;BME280_humidity;BME280_pressure;Samples;Min_cycle;Max_cycle;Signal;HPM_P1;HPM_P2
2022/12/10 00:01:35;;;;;;;;;;;;;;;;;;8345990;28;27962;-78
2022/12/10 00:05:35;;;;;;;;;;;;;;;;;;8323544;28;28692;-78
2022/12/10 00:09:35;;;;;;;;;;;;;;;;;;8345088;28;27513;-79
2022/12/10 00:13:35;;;;;;;;;;;;;;;;;;8347666;28;27487;-77
2022/12/10 00:17:36;;;;;;;;;;;;;;;;;;8341506;28;27304;-76
2022/12/10 00:21:36;;;;;;;;;;;;;;;;;;8340779;28;27937;-77
2022/12/10 00:25:36;;;;;;;;;;;;;;;;;;8345922;28;27815;-78
2022/12/10 00:29:36;;;;;;;;;;;;;;;;;;8333394;28;28512;-77
2022/12/10 00:33:36;;;;;;;;;;;;;;;;;;8329200;28;28546;-76
2022/12/10 00:37:36;;;;;;;;;;;;;;;;;;8345547;28;27921;-78
2022/12/10 00:41:36;;;;;;;;;;;;;;;;;;8326336;28;28613;-77
2022/12/10 00:45:36;;;;;;;;;;;;;;;;;;8346427;28;27672;-77
2022/12/10 00:49:36;;;;;;;;;;;;;;;;;;8328989;28;28933;-76
2022/12/10 00:53:36;;;;;;;;;;;;;;;;;;8344056;28;27740;-77
2022/12/10 00:57:36;;;;;;;;;;;;;;;;;;8348947;28;27817;-78
2022/12/10 01:01:36;;;;;;;;;;;;;;;;;;8346917;28;28342;-80
2022/12/10 01:05:36;;;;;;;;;;;;;;;;;;8328588;28;28711;-77
2022/12/10 01:09:37;;;;;;;;;;;;;;;;;;8321419;28;28661;-77
2022/12/10 01:13:37;;;;;;;;;;;;;;;;;;8341824;28;27288;-78
2022/12/10 01:17:37;;;;;;;;;;;;;;;;;;8328655;28;30022;-77
2022/12/10 01:21:37;;;;;;;;;;;;;;;;;;8343978;28;27631;-77
2022/12/10 01:25:37;;;;;;;;;;;;;;;;;;8341789;28;27598;-77
2022/12/10 01:29:37;;;;;;;;;;;;;;;;;;8342898;28;27667;-78
2022/12/10 01:33:37;;;;;;;;;;;;;;;;;;8345639;28;27145;-77
2022/12/10 01:37:37;;;;;;;;;;;;;;;;;;8343468;28;28799;-76
2022/12/10 01:41:37;;;;;;;;;;;;;;;;;;8327966;28;29959;-79
2022/12/10 01:45:39;;;;;;;;;;;;;;;;;;8344245;28;47939;-79
2022/12/10 01:49:39;;;;;;;;;;;;;;;;;;8333333;28;28597;-77
2022/12/10 01:53:39;;;;;;;;;;;;;;;;;;8352136;28;28154;-78
2022/12/10 01:57:40;;;;;;;;;;;;;;;;;;8334475;28;28677;-77
2022/12/10 02:01:40;;;;;;;;;;;;;;;;;;8328109;28;28551;-79
2022/12/10 02:05:40;;;;;;;;;;;;;;;;;;8349946;28;27421;-77
2022/12/10 02:09:40;;;;;;;;;;;;;;;;;;8332985;28;28490;-78
2022/12/10 02:13:40;;;;;;;;;;;;;;;;;;8347673;28;27177;-76
2022/12/10 02:17:40;;;;;;;;;;;;;;;;;;8350035;28;28098;-80
2022/12/10 02:21:40;;;;;;;;;;;;;;;;;;8351918;28;27579;-77
2022/12/10 02:25:40;;;;;;;;;;;;;;;;;;8350162;28;27776;-77
2022/12/10 02:29:40;;;;;;;;;;;;;;;;;;8346402;28;27527;-76
2022/12/10 02:33:40;;;;;;;;;;;;;;;;;;8350898;28;27263;-75
2022/12/10 02:37:40;;;;;;;;;;;;;;;;;;8351359;28;28385;-76
2022/12/10 02:41:41;;;;;;;;;;;;;;;;;;8349762;28;27634;-77
2022/12/10 02:45:41;;;;;;;;;;;;;;;;;;8350922;28;27516;-78
2022/12/10 02:49:41;;;;;;;;;;;;;;;;;;8350477;28;27870;-77
2022/12/10 02:53:41;;;;;;;;;;;;;;;;;;8347292;28;28020;-77
2022/12/10 02:57:41;;;;;;;;;;;;;;;;;;8338200;28;28208;-74
2022/12/10 03:01:41;;;;;;;;;;;;;;;;;;8350842;28;27862;-77
2022/12/10 03:05:41;;;;;;;;;;;;;;;;;;8347031;28;28750;-77
2022/12/10 03:09:41;;;;;;;;;;;;;;;;;;8347374;28;29313;-77
2022/12/10 03:13:42;;;;;;;;;;;;;;;;;;8325976;28;28527;-77
2022/12/10 03:17:42;;;;;;;;;;;;;;;;;;8330085;28;29433;-77
2022/12/10 03:21:42;;;;;;;;;;;;;;;;;;8336435;28;28359;-77
2022/12/10 03:25:42;;;;;;;;;;;;;;;;;;8346086;28;27674;-77
2022/12/10 03:29:42;;;;;;;;;;;;;;;;;;8333336;28;28912;-77
2022/12/10 03:33:42;;;;;;;;;;;;;;;;;;8347931;28;28391;-79
2022/12/10 03:37:42;;;;;;;;;;;;;;;;;;8354588;28;27830;-79
2022/12/10 03:41:42;;;;;;;;;;;;;;;;;;8345832;28;27514;-78
2022/12/10 03:45:42;;;;;;;;;;;;;;;;;;8332035;28;28531;-77
2022/12/10 03:49:42;;;;;;;;;;;;;;;;;;8350341;28;27305;-76
2022/12/10 03:53:42;;;;;;;;;;;;;;;;;;8348591;28;27493;-78
2022/12/10 03:57:43;;;;;;;;;;;;;;;;;;8330215;28;28586;-76
2022/12/10 04:01:43;;;;;;;;;;;;;;;;;;8338331;28;27409;-77
2022/12/10 04:05:43;;;;;;;;;;;;;;;;;;8333798;28;29769;-77
2022/12/10 04:09:43;;;;;;;;;;;;;;;;;;8345853;28;27850;-77
2022/12/10 04:18:02;;;;;;;;;;;;;;;;;;8346831;28;27371;-77
2022/12/10 04:30:39;;;;;;;;;;;;;;;;;;8342679;28;27236;-77
2022/12/10 04:34:40;;;;;;;;;;;;;;;;;;8331412;28;28749;-77
2022/12/10 04:38:40;;;;;;;;;;;;;;;;;;8349991;28;27352;-76
2022/12/10 04:42:40;;;;;;;;;;;;;;;;;;8339533;28;27339;-78
2022/12/10 04:46:40;;;;;;;;;;;;;;;;;;8332956;28;29044;-77
2022/12/10 04:50:40;;;;;;;;;;;;;;;;;;8345740;28;28006;-77
2022/12/10 04:54:40;;;;;;;;;;;;;;;;;;8347762;28;27999;-77
2022/12/10 04:58:40;;;;;;;;;;;;;;;;;;8349722;28;27237;-79
2022/12/10 05:02:40;;;;;;;;;;;;;;;;;;8348062;28;27793;-77
2022/12/10 05:06:40;;;;;;;;;;;;;;;;;;8347804;28;27446;-79
2022/12/10 05:10:40;;;;;;;;;;;;;;;;;;8347024;28;28080;-79
2022/12/10 05:14:40;;;;;;;;;;;;;;;;;;8328490;28;28780;-77
2022/12/10 05:18:40;;;;;;;;;;;;;;;;;;8345886;28;27358;-79
2022/12/10 05:26:59;;;;;;;;;;;;;;;;;;8350850;28;27448;-78
2022/12/10 05:31:00;;;;;;;;;;;;;;;;;;8348995;28;27999;-78
2022/12/10 05:35:00;;;;;;;;;;;;;;;;;;8319921;28;28467;-80
2022/12/10 05:39:00;;;;;;;;;;;;;;;;;;8336295;28;29920;-78
2022/12/10 05:43:00;;;;;;;;;;;;;;;;;;8337997;28;29942;-77
2022/12/10 05:47:00;;;;;;;;;;;;;;;;;;8351633;28;27332;-78
2022/12/10 05:51:00;;;;;;;;;;;;;;;;;;8355949;28;27309;-78
2022/12/10 05:55:00;;;;;;;;;;;;;;;;;;8356081;28;28419;-79
2022/12/10 05:59:00;;;;;;;;;;;;;;;;;;8352268;28;27076;-79
2022/12/10 06:03:00;;;;;;;;;;;;;;;;;;8351429;28;27396;-79
2022/12/10 06:07:00;;;;;;;;;;;;;;;;;;8354350;28;27702;-77
2022/12/10 06:11:01;;;;;;;;;;;;;;;;;;8351117;28;27663;-77
2022/12/10 06:15:01;;;;;;;;;;;;;;;;;;8330009;28;29269;-78
2022/12/10 06:19:01;;;;;;;;;;;;;;;;;;8340466;28;27450;-77
2022/12/10 06:23:01;;;;;;;;;;;;;;;;;;8332878;28;28313;-77
2022/12/10 06:27:01;;;;;;;;;;;;;;;;;;8347971;28;28318;-79
2022/12/10 06:31:01;;;;;;;;;;;;;;;;;;8352306;28;28058;-77
2022/12/10 06:35:01;;;;;;;;;;;;;;;;;;8356989;28;27355;-78
2022/12/10 06:39:01;;;;;;;;;;;;;;;;;;8352602;28;27346;-77
2022/12/10 06:43:01;;;;;;;;;;;;;;;;;;8355274;28;27345;-77
2022/12/10 06:47:01;;;;;;;;;;;;;;;;;;8338671;28;29757;-77
2022/12/10 06:51:01;;;;;;;;;;;;;;;;;;8334029;28;28711;-76
2022/12/10 06:55:02;;;;;;;;;;;;;;;;;;8349866;28;27493;-77
2022/12/10 06:59:02;;;;;;;;;;;;;;;;;;8357322;28;27382;-80
2022/12/10 07:03:02;;;;;;;;;;;;;;;;;;8335001;28;27946;-78
2022/12/10 07:07:02;;;;;;;;;;;;;;;;;;8343473;28;28491;-78
2022/12/10 07:11:02;;;;;;;;;;;;;;;;;;8349526;28;27150;-77
2022/12/10 07:15:02;;;;;;;;;;;;;;;;;;8348488;28;27180;-79
2022/12/10 07:19:02;;;;;;;;;;;;;;;;;;8341631;28;28773;-78
2022/12/10 07:23:02;;;;;;;;;;;;;;;;;;8336964;28;28215;-81
2022/12/10 07:27:02;;;;;;;;;;;;;;;;;;8350679;28;27351;-79
2022/12/10 07:31:02;;;;;;;;;;;;;;;;;;8352616;28;27207;-78
2022/12/10 07:35:02;;;;;;;;;;;;;;;;;;8351463;28;27059;-78
2022/12/10 07:39:03;;;;;;;;;;;;;;;;;;8352056;28;28061;-78
2022/12/10 07:43:03;;;;;;;;;;;;;;;;;;8350845;28;27709;-79
2022/12/10 07:47:03;;;;;;;;;;;;;;;;;;8355352;28;27960;-77
2022/12/10 07:51:03;;;;;;;;;;;;;;;;;;8350934;28;29197;-77
2022/12/10 07:55:03;;;;;;;;;;;;;;;;;;8351797;28;27923;-79
2022/12/10 07:59:03;;;;;;;;;;;;;;;;;;8349085;28;27794;-78
2022/12/10 08:03:03;;;;;;;;;;;;;;;;;;8338387;28;27537;-78
2022/12/10 08:07:03;;;;;;;;;;;;;;;;;;8343875;28;27651;-78
2022/12/10 08:11:03;;;;;;;;;;;;;;;;;;8347211;28;27461;-76
2022/12/10 08:15:03;;;;;;;;;;;;;;;;;;8334343;28;28292;-78
2022/12/10 08:19:03;;;;;;;;;;;;;;;;;;8334567;28;28579;-78
2022/12/10 08:23:03;;;;;;;;;;;;;;;;;;8346741;28;27344;-78
2022/12/10 08:27:03;;;;;;;;;;;;;;;;;;8346618;28;27317;-78
2022/12/10 08:31:03;;;;;;;;;;;;;;;;;;8329723;28;29897;-77
2022/12/10 08:35:04;;;;;;;;;;;;;;;;;;8344109;28;27079;-78
2022/12/10 08:39:04;;;;;;;;;;;;;;;;;;8332180;28;29598;-79
2022/12/10 08:43:04;;;;;;;;;;;;;;;;;;8351341;28;27407;-78
2022/12/10 08:47:04;;;;;;;;;;;;;;;;;;8351923;28;29044;-80
2022/12/10 08:51:04;;;;;;;;;;;;;;;;;;8352669;28;27249;-79
2022/12/10 08:55:04;;;;;;;;;;;;;;;;;;8337522;28;27539;-80
2022/12/10 08:59:04;;;;;;;;;;;;;;;;;;8332284;28;28046;-78
2022/12/10 09:03:04;;;;;;;;;;;;;;;;;;8350002;28;27309;-78
2022/12/10 09:07:05;;;;;;;;;;;;;;;;;;8335040;28;28710;-78
2022/12/10 09:11:05;;;;;;;;;;;;;;;;;;8344038;28;27857;-79
2022/12/10 09:15:05;;;;;;;;;;;;;;;;;;8334090;28;29085;-80
2022/12/10 09:19:05;;;;;;;;;;;;;;;;;;8329246;28;28492;-80
2022/12/10 09:23:05;;;;;;;;;;;;;;;;;;8343644;28;27613;-78
2022/12/10 09:27:05;;;;;;;;;;;;;;;;;;8350767;28;28389;-78
2022/12/10 09:31:05;;;;;;;;;;;;;;;;;;8338741;28;27607;-78
2022/12/10 09:35:07;;;;;;;;;;;;;;;;;;8347789;28;27689;-79
2022/12/10 09:39:07;;;;;;;;;;;;;;;;;;8347683;28;28208;-79
2022/12/10 09:43:07;;;;;;;;;;;;;;;;;;8319464;28;28424;-77
2022/12/10 09:47:07;;;;;;;;;;;;;;;;;;8326995;28;28580;-77
2022/12/10 09:51:07;;;;;;;;;;;;;;;;;;8333840;28;29698;-79
2022/12/10 09:55:07;;;;;;;;;;;;;;;;;;8327721;28;28476;-80
2022/12/10 09:59:07;;;;;;;;;;;;;;;;;;8331902;28;29258;-79
2022/12/10 10:03:07;;;;;;;;;;;;;;;;;;8329871;28;28527;-78
2022/12/10 10:07:07;;;;;;;;;;;;;;;;;;8344360;28;27400;-78
2022/12/10 10:11:07;;;;;;;;;;;;;;;;;;8328392;28;27188;-77
2022/12/10 10:15:07;;;;;;;;;;;;;;;;;;8351734;28;27108;-79
2022/12/10 10:19:07;;;;;;;;;;;;;;;;;;8352932;28;27344;-79
2022/12/10 10:23:08;;;;;;;;;;;;;;;;;;8347905;28;27467;-77
2022/12/10 10:27:08;;;;;;;;;;;;;;;;;;8332472;28;28503;-77
2022/12/10 10:31:08;;;;;;;;;;;;;;;;;;8346089;28;28090;-78
2022/12/10 10:35:08;;;;;;;;;;;;;;;;;;8350661;28;27169;-77
2022/12/10 10:39:08;;;;;;;;;;;;;;;;;;8334023;28;28596;-77
2022/12/10 10:43:08;;;;;;;;;;;;;;;;;;8353546;28;27680;-78
2022/12/10 10:47:08;;;;;;;;;;;;;;;;;;8335621;28;28979;-78
2022/12/10 10:51:08;;;;;;;;;;;;;;;;;;8353167;28;27828;-77
2022/12/10 10:55:08;;;;;;;;;;;;;;;;;;8351372;28;27309;-78
2022/12/10 10:59:08;;;;;;;;;;;;;;;;;;8344315;28;27233;-78
2022/12/10 11:03:08;;;;;;;;;;;;;;;;;;8351365;28;28559;-79
2022/12/10 11:07:08;;;;;;;;;;;;;;;;;;8334851;28;29584;-78
2022/12/10 11:11:09;;;;;;;;;;;;;;;;;;8348008;28;28287;-77
2022/12/10 11:15:09;;;;;;;;;;;;;;;;;;8329631;28;28454;-78
2022/12/10 11:19:09;;;;;;;;;;;;;;;;;;8346885;28;27456;-78
2022/12/10 11:23:09;;;;;;;;;;;;;;;;;;8350382;28;27394;-80
2022/12/10 11:27:09;;;;;;;;;;;;;;;;;;8348777;28;27798;-79
2022/12/10 11:31:09;;;;;;;;;;;;;;;;;;8349197;28;28086;-78
2022/12/10 11:35:09;;;;;;;;;;;;;;;;;;8348895;28;27995;-78
2022/12/10 11:39:09;;;;;;;;;;;;;;;;;;8329894;28;28223;-77
2022/12/10 11:43:09;;;;;;;;;;;;;;;;;;8348989;28;27216;-77
2022/12/10 11:47:09;;;;;;;;;;;;;;;;;;8354362;28;27208;-78
2022/12/10 11:51:10;;;;;;;;;;;;;;;;;;8344446;28;28741;-78
2022/12/10 11:55:10;;;;;;;;;;;;;;;;;;8351375;28;28525;-78
2022/12/10 11:59:10;;;;;;;;;;;;;;;;;;8348085;28;27198;-77
2022/12/10 12:03:10;;;;;;;;;;;;;;;;;;8349394;28;27394;-78
2022/12/10 12:07:10;;;;;;;;;;;;;;;;;;8350462;28;27401;-78
2022/12/10 12:11:11;;;;;;;;;;;;;;;;;;8346946;28;27837;-78
2022/12/10 12:15:11;;;;;;;;;;;;;;;;;;8331210;28;27508;-78
2022/12/10 12:19:11;;;;;;;;;;;;;;;;;;8335829;28;28950;-77
2022/12/10 12:23:11;;;;;;;;;;;;;;;;;;8349052;28;27226;-79
2022/12/10 12:27:11;;;;;;;;;;;;;;;;;;8349378;28;27519;-78
2022/12/10 12:31:11;;;;;;;;;;;;;;;;;;8348351;28;27388;-79
2022/12/10 12:35:11;;;;;;;;;;;;;;;;;;8339543;28;29452;-80
2022/12/10 12:39:12;;;;;;;;;;;;;;;;;;8330097;28;28825;-79
2022/12/10 12:43:12;;;;;;;;;;;;;;;;;;8334144;28;28717;-78
2022/12/10 12:47:12;;;;;;;;;;;;;;;;;;8333339;28;28866;-77
2022/12/10 12:51:13;;;;;;;;;;;;;;;;;;8343124;28;27384;-78
2022/12/10 12:55:13;;;;;;;;;;;;;;;;;;8339923;28;27596;-78
2022/12/10 12:59:13;;;;;;;;;;;;;;;;;;8316827;28;28503;-78
2022/12/10 13:03:13;;;;;;;;;;;;;;;;;;8342697;28;27847;-78
2022/12/10 13:07:13;;;;;;;;;;;;;;;;;;8340535;28;27485;-76
2022/12/10 13:11:13;;;;;;;;;;;;;;;;;;8348596;28;27544;-78
2022/12/10 13:15:13;;;;;;;;;;;;;;;;;;8329320;28;28612;-79
2022/12/10 13:19:13;;;;;;;;;;;;;;;;;;8346761;28;27660;-79
2022/12/10 13:23:13;;;;;;;;;;;;;;;;;;8347050;28;28197;-78
2022/12/10 13:27:14;;;;;;;;;;;;;;;;;;8346199;28;27222;-77
2022/12/10 13:31:18;;;;;;;;;;;;;;;;;;8332228;28;29163;-78
2022/12/10 13:35:18;;;;;;;;;;;;;;;;;;8354454;28;27669;-77
2022/12/10 13:39:18;;;;;;;;;;;;;;;;;;8347532;28;28048;-77
2022/12/10 13:47:37;;;;;;;;;;;;;;;;;;8349777;28;27714;-77
2022/12/10 13:51:37;;;;;;;;;;;;;;;;;;8356549;28;27711;-79
2022/12/10 13:55:37;;;;;;;;;;;;;;;;;;8345108;28;28234;-77
2022/12/10 13:59:37;;;;;;;;;;;;;;;;;;8355180;28;27402;-79
2022/12/10 14:03:37;;;;;;;;;;;;;;;;;;8334575;28;28979;-77
2022/12/10 14:07:37;;;;;;;;;;;;;;;;;;8350411;28;27524;-79
2022/12/10 14:11:37;;;;;;;;;;;;;;;;;;8349716;28;27699;-79
2022/12/10 14:15:37;;;;;;;;;;;;;;;;;;8350224;28;29668;-78
2022/12/10 14:19:38;;;;;;;;;;;;;;;;;;8346986;28;29093;-77
2022/12/10 14:23:40;;;;;;;;;;;;;;;;;;8354078;28;27623;-77
2022/12/10 14:27:40;;;;;;;;;;;;;;;;;;8334025;28;28570;-78
2022/12/10 14:31:40;;;;;;;;;;;;;;;;;;8351724;28;27332;-78
2022/12/10 14:35:40;;;;;;;;;;;;;;;;;;8324442;28;28450;-76
2022/12/10 14:39:41;;;;;;;;;;;;;;;;;;8355671;28;28059;-75
2022/12/10 14:43:41;;;;;;;;;;;;;;;;;;8345096;28;27586;-75
2022/12/10 14:47:41;;;;;;;;;;;;;;;;;;8351726;28;27355;-74
2022/12/10 14:51:41;;;;;;;;;;;;;;;;;;8357207;28;27496;-76
2022/12/10 14:55:41;;;;;;;;;;;;;;;;;;8349737;28;27909;-77
2022/12/10 14:59:41;;;;;;;;;;;;;;;;;;8330829;28;28876;-78
2022/12/10 15:03:42;;;;;;;;;;;;;;;;;;8355964;28;29427;-76
2022/12/10 15:07:43;;;;;;;;;;;;;;;;;;8343897;28;27530;-75
2022/12/10 15:11:43;;;;;;;;;;;;;;;;;;8341513;28;28093;-74
2022/12/10 15:15:43;;;;;;;;;;;;;;;;;;8346864;28;27738;-74
2022/12/10 15:19:43;;;;;;;;;;;;;;;;;;8346732;28;27434;-75
2022/12/10 15:23:43;;;;;;;;;;;;;;;;;;8343737;28;27115;-75
2022/12/10 15:27:43;;;;;;;;;;;;;;;;;;8328178;28;29003;-77
2022/12/10 15:31:43;;;;;;;;;;;;;;;;;;8342869;28;28582;-75
2022/12/10 15:35:43;;;;;;;;;;;;;;;;;;8327667;28;28391;-76
2022/12/10 15:39:44;;;;;;;;;;;;;;;;;;8343955;28;28679;-78
2022/12/10 15:43:44;;;;;;;;;;;;;;;;;;8346889;28;27825;-77
2022/12/10 15:47:44;;;;;;;;;;;;;;;;;;8348525;28;27440;-77
2022/12/10 15:51:44;;;;;;;;;;;;;;;;;;8331958;28;27696;-77
2022/12/10 15:55:44;;;;;;;;;;;;;;;;;;8290579;28;27959;-78
2022/12/10 15:59:44;;;;;;;;;;;;;;;;;;8248687;28;28713;-77
2022/12/10 16:03:44;;;;;;;;;;;;;;;;;;8272669;28;28468;-75
2022/12/10 16:07:44;;;;;;;;;;;;;;;;;;8247225;28;28825;-75
2022/12/10 16:11:44;;;;;;;;;;;;;;;;;;8271834;28;29467;-75
2022/12/10 16:15:45;;;;;;;;;;;;;;;;;;8242943;28;28484;-77
2022/12/10 16:19:45;;;;;;;;;;;;;;;;;;8262329;28;27889;-76
2022/12/10 16:23:46;;;;;;;;;;;;;;;;;;8293213;28;28126;-77
2022/12/10 16:27:46;;;;;;;;;;;;;;;;;;8260563;28;28011;-76
2022/12/10 16:31:46;;;;;;;;;;;;;;;;;;8245948;28;28695;-76
2022/12/10 16:35:47;;;;;;;;;;;;;;;;;;8286403;28;28596;-74
2022/12/10 16:39:47;;;;;;;;;;;;;;;;;;8250085;28;28579;-76
2022/12/10 16:43:47;;;;;;;;;;;;;;;;;;8264595;28;27891;-75
2022/12/10 16:47:47;;;;;;;;;;;;;;;;;;8276589;28;28565;-76
2022/12/10 16:51:47;;;;;;;;;;;;;;;;;;8252285;28;29067;-76
2022/12/10 16:55:47;;;;;;;;;;;;;;;;;;8330264;28;27541;-76
2022/12/10 16:59:47;;;;;;;;;;;;;;;;;;8322151;28;27404;-76
2022/12/10 17:03:47;;;;;;;;;;;;;;;;;;8326363;28;28652;-76
2022/12/10 17:07:47;;;;;;;;;;;;;;;;;;8332121;28;28531;-77
2022/12/10 17:11:48;;;;;;;;;;;;;;;;;;8331593;28;28183;-76
2022/12/10 17:15:48;;;;;;;;;;;;;;;;;;8328585;28;28872;-75
2022/12/10 17:19:48;;;;;;;;;;;;;;;;;;8352389;28;27324;-76
2022/12/10 17:23:49;;;;;;;;;;;;;;;;;;8344243;28;28656;-75
2022/12/10 17:27:49;;;;;;;;;;;;;;;;;;8350829;28;27607;-76
2022/12/10 17:31:49;;;;;;;;;;;;;;;;;;8334539;28;28746;-75
2022/12/10 17:35:49;;;;;;;;;;;;;;;;;;8340531;28;28749;-76
2022/12/10 17:39:49;;;;;;;;;;;;;;;;;;8348638;28;27434;-76
2022/12/10 17:43:49;;;;;;;;;;;;;;;;;;8352211;28;27748;-76
2022/12/10 17:47:49;;;;;;;;;;;;;;;;;;8349517;28;27057;-76
2022/12/10 17:51:49;;;;;;;;;;;;;;;;;;8335035;28;27506;-76
2022/12/10 17:55:50;;;;;;;;;;;;;;;;;;8352520;28;27185;-76
2022/12/10 17:59:50;;;;;;;;;;;;;;;;;;8331027;28;27178;-76
2022/12/10 18:03:50;;;;;;;;;;;;;;;;;;8350818;28;28048;-78
2022/12/10 18:07:50;;;;;;;;;;;;;;;;;;8333030;28;28804;-76
2022/12/10 18:11:53;;;;;;;;;;;;;;;;;;8332142;28;28389;-78
2022/12/10 18:15:53;;;;;;;;;;;;;;;;;;8334484;28;28283;-76
2022/12/10 18:19:53;;;;;;;;;;;;;;;;;;8332757;28;29568;-76
2022/12/10 18:23:53;;;;;;;;;;;;;;;;;;8338162;28;29099;-77
2022/12/10 18:27:53;;;;;;;;;;;;;;;;;;8352849;28;27394;-76
2022/12/10 18:31:53;;;;;;;;;;;;;;;;;;8334685;28;27088;-75
2022/12/10 18:35:53;;;;;;;;;;;;;;;;;;8333992;28;29126;-76
2022/12/10 18:39:53;;;;;;;;;;;;;;;;;;8334189;28;28771;-76
2022/12/10 18:43:54;;;;;;;;;;;;;;;;;;8332718;28;28775;-77
2022/12/10 18:47:54;;;;;;;;;;;;;;;;;;8330337;28;29011;-76
2022/12/10 18:51:54;;;;;;;;;;;;;;;;;;8354445;28;28521;-77
2022/12/10 18:55:54;;;;;;;;;;;;;;;;;;8328071;28;27336;-76
2022/12/10 18:59:54;;;;;;;;;;;;;;;;;;8349806;28;27084;-77
2022/12/10 19:03:55;;;;;;;;;;;;;;;;;;8346367;28;27579;-78
2022/12/10 19:07:55;;;;;;;;;;;;;;;;;;8323778;28;28244;-76
2022/12/10 19:11:55;;;;;;;;;;;;;;;;;;8325744;28;28237;-75
2022/12/10 19:15:55;;;;;;;;;;;;;;;;;;8349791;28;27682;-76
2022/12/10 19:19:55;;;;;;;;;;;;;;;;;;8347666;28;27694;-75
2022/12/10 19:23:55;;;;;;;;;;;;;;;;;;8358701;28;27279;-76
2022/12/10 19:27:55;;;;;;;;;;;;;;;;;;8332107;28;28686;-76
2022/12/10 19:31:58;;;;;;;;;;;;;;;;;;8328529;28;28131;-77
2022/12/10 19:35:58;;;;;;;;;;;;;;;;;;8346149;28;27353;-76
2022/12/10 19:39:58;;;;;;;;;;;;;;;;;;8352636;28;28337;-77
2022/12/10 19:43:58;;;;;;;;;;;;;;;;;;8349939;28;27571;-74
2022/12/10 19:47:58;;;;;;;;;;;;;;;;;;8348965;28;27355;-78
2022/12/10 19:51:58;;;;;;;;;;;;;;;;;;8349020;28;27295;-79
2022/12/10 19:55:58;;;;;;;;;;;;;;;;;;8339806;28;27333;-77
2022/12/10 19:59:58;;;;;;;;;;;;;;;;;;8339143;28;29106;-74
2022/12/10 20:03:59;;;;;;;;;;;;;;;;;;8345224;28;27699;-76
2022/12/10 20:07:59;;;;;;;;;;;;;;;;;;8337598;28;28156;-76
2022/12/10 20:11:59;;;;;;;;;;;;;;;;;;8328782;28;29502;-77
2022/12/10 20:15:59;;;;;;;;;;;;;;;;;;8331931;28;28481;-78
2022/12/10 20:19:59;;;;;;;;;;;;;;;;;;8328398;28;31583;-76
2022/12/10 20:24:01;;;;;;;;;;;;;;;;;;8327123;28;28569;-78
2022/12/10 20:28:01;;;;;;;;;;;;;;;;;;8347047;28;27842;-75
2022/12/10 20:32:03;;;;;;;;;;;;;;;;;;8348686;28;27552;-76
2022/12/10 20:36:03;;;;;;;;;;;;;;;;;;8327304;28;28663;-78
2022/12/10 20:40:03;;;;;;;;;;;;;;;;;;8345270;28;28061;-78
2022/12/10 20:44:03;;;;;;;;;;;;;;;;;;8347862;28;27481;-79
2022/12/10 20:48:03;;;;;;;;;;;;;;;;;;8345473;28;27867;-77
2022/12/10 20:52:04;;;;;;;;;;;;;;;;;;8352896;28;27604;-76
2022/12/10 20:56:04;;;;;;;;;;;;;;;;;;8348816;28;27520;-76
2022/12/10 21:00:04;;;;;;;;;;;;;;;;;;8335727;28;28089;-76
2022/12/10 21:04:04;;;;;;;;;;;;;;;;;;8348466;28;27297;-76
2022/12/10 21:08:07;;;;;;;;;;;;;;;;;;8342309;28;28661;-76
2022/12/10 21:12:07;;;;;;;;;;;;;;;;;;8347942;28;27642;-76
2022/12/10 21:16:07;;;;;;;;;;;;;;;;;;8339378;28;28634;-76
2022/12/10 21:20:07;;;;;;;;;;;;;;;;;;8333808;28;28898;-76
2022/12/10 21:24:07;;;;;;;;;;;;;;;;;;8330099;28;28570;-78
2022/12/10 21:28:08;;;;;;;;;;;;;;;;;;8345284;28;27367;-78
2022/12/10 21:32:08;;;;;;;;;;;;;;;;;;8344555;28;27950;-77
2022/12/10 21:36:08;;;;;;;;;;;;;;;;;;8336143;28;27568;-78
2022/12/10 21:40:08;;;;;;;;;;;;;;;;;;8342930;28;27246;-76
2022/12/10 21:44:08;;;;;;;;;;;;;;;;;;8340197;28;27217;-77
2022/12/10 21:48:08;;;;;;;;;;;;;;;;;;8327261;28;29300;-76
2022/12/10 21:52:09;;;;;;;;;;;;;;;;;;8349026;28;27473;-76
2022/12/10 21:56:09;;;;;;;;;;;;;;;;;;8327739;28;28223;-77
2022/12/10 22:00:09;;;;;;;;;;;;;;;;;;8350348;28;27791;-76
2022/12/10 22:04:09;;;;;;;;;;;;;;;;;;8326684;28;28768;-77
2022/12/10 22:08:09;;;;;;;;;;;;;;;;;;8340041;28;28477;-76
2022/12/10 22:12:09;;;;;;;;;;;;;;;;;;8338132;28;28158;-76
2022/12/10 22:16:09;;;;;;;;;;;;;;;;;;8354023;28;28720;-77
2022/12/10 22:20:09;;;;;;;;;;;;;;;;;;8351806;28;27471;-77
2022/12/10 22:24:09;;;;;;;;;;;;;;;;;;8355046;28;27734;-75
2022/12/10 22:28:09;;;;;;;;;;;;;;;;;;8354131;28;27920;-76
2022/12/10 22:32:09;;;;;;;;;;;;;;;;;;8347620;28;27440;-76
2022/12/10 22:36:10;;;;;;;;;;;;;;;;;;8354181;28;27159;-76
2022/12/10 22:40:11;;;;;;;;;;;;;;;;;;8333303;28;29327;-76
2022/12/10 22:44:11;;;;;;;;;;;;;;;;;;8344109;28;27227;-75
2022/12/10 22:48:11;;;;;;;;;;;;;;;;;;8336061;28;28485;-75
2022/12/10 22:52:11;;;;;;;;;;;;;;;;;;8354090;28;27164;-75
2022/12/10 22:56:11;;;;;;;;;;;;;;;;;;8348271;28;27522;-75
2022/12/10 23:00:15;;;;;;;;;;;;;;;;;;8359355;28;28501;-75
2022/12/10 23:04:15;;;;;;;;;;;;;;;;;;8328671;28;29706;-76
2022/12/10 23:08:15;;;;;;;;;;;;;;;;;;8352359;28;27904;-77
2022/12/10 23:16:34;;;;;;;;;;;;;;;;;;8351584;28;27235;-77
2022/12/10 23:20:34;;;;;;;;;;;;;;;;;;8326860;28;27357;-77
2022/12/10 23:24:34;;;;;;;;;;;;;;;;;;8347755;28;28332;-76
2022/12/10 23:28:34;;;;;;;;;;;;;;;;;;8344814;28;28622;-75
2022/12/10 23:32:34;;;;;;;;;;;;;;;;;;8340855;28;28100;-76
2022/12/10 23:36:34;;;;;;;;;;;;;;;;;;8328352;28;27658;-75
2022/12/10 23:40:34;;;;;;;;;;;;;;;;;;8329456;28;28769;-75
2022/12/10 23:44:34;;;;;;;;;;;;;;;;;;8351550;28;28485;-76
2022/12/10 23:48:35;;;;;;;;;;;;;;;;;;8335018;28;28471;-73
2022/12/10 23:52:35;;;;;;;;;;;;;;;;;;8332512;28;29407;-77
2022/12/10 23:56:35;;;;;;;;;;;;;;;;;;8337226;28;27308;-76
